createdAt,value
2023-01-17T00:01:40.429Z,3.17
2023-01-17T00:05:05.015Z,2.30
2023-01-17T00:08:30.191Z,4.20
2023-01-17T00:11:37.793Z,3.60
2023-01-17T00:14:44.214Z,2.73
2023-01-17T00:17:50.744Z,2.00
2023-01-17T00:21:14.260Z,1.13
2023-01-17T00:24:38.149Z,2.83
2023-01-17T00:27:44.827Z,2.83
2023-01-17T00:30:50.202Z,3.20
2023-01-17T00:33:55.539Z,2.33
2023-01-17T00:37:00.673Z,3.43
2023-01-17T00:40:06.751Z,2.47
2023-01-17T00:43:33.698Z,2.90
2023-01-17T00:46:57.606Z,2.80
2023-01-17T00:50:21.419Z,5.40
2023-01-17T00:53:45.350Z,2.43
2023-01-17T00:57:09.397Z,3.07
2023-01-17T01:00:37.303Z,2.57
2023-01-17T01:04:01.419Z,4.10
2023-01-17T01:07:25.284Z,3.07
2023-01-17T01:10:49.222Z,2.07
2023-01-17T01:14:13.710Z,2.33
2023-01-17T01:17:38.923Z,3.90
2023-01-17T01:21:02.991Z,3.47
2023-01-17T01:24:26.643Z,3.33
2023-01-17T01:27:50.486Z,2.40
2023-01-17T01:31:13.965Z,2.90
2023-01-17T01:34:22.076Z,2.50
2023-01-17T01:37:28.665Z,2.50
2023-01-17T01:40:35.217Z,6.43
2023-01-17T01:43:45.107Z,2.43
2023-01-17T01:46:51.571Z,3.40
2023-01-17T01:50:01.539Z,2.83
2023-01-17T01:53:09.163Z,2.13
2023-01-17T01:56:16.981Z,2.77
2023-01-17T01:59:24.291Z,2.13
2023-01-17T02:02:32.360Z,5.87
2023-01-17T02:05:42.537Z,2.53
2023-01-17T02:08:50.230Z,2.63
2023-01-17T02:11:56.659Z,5.90
2023-01-17T02:15:03.427Z,3.73
2023-01-17T02:18:17.755Z,4.20
2023-01-17T02:21:27.469Z,4.07
2023-01-17T02:25:00.491Z,3.67
2023-01-17T02:28:28.829Z,5.23
2023-01-17T02:31:46.318Z,3.67
2023-01-17T02:34:59.419Z,8.77
2023-01-17T02:38:16.170Z,4.83
2023-01-17T02:41:26.332Z,3.73
2023-01-17T02:44:41.551Z,4.10
2023-01-17T02:47:49.249Z,3.07
2023-01-17T02:51:12.842Z,4.03
2023-01-17T02:54:49.401Z,2.93
2023-01-17T02:58:08.541Z,13.70
2023-01-17T03:01:27.814Z,6.37
2023-01-17T03:04:41.817Z,3.03
2023-01-17T03:07:48.697Z,3.23
2023-01-17T03:10:55.491Z,5.33
2023-01-17T03:14:01.778Z,4.07
2023-01-17T03:17:09.184Z,4.50
2023-01-17T03:20:18.088Z,5.67
2023-01-17T03:23:24.807Z,7.90
2023-01-17T03:26:31.846Z,8.43
2023-01-17T03:29:38.089Z,4.83
2023-01-17T03:32:44.625Z,3.10
2023-01-17T03:35:52.829Z,1.83
2023-01-17T03:39:00.181Z,5.37
2023-01-17T03:42:06.996Z,9.73
2023-01-17T03:45:14.350Z,7.80
2023-01-17T03:48:20.615Z,5.13
2023-01-17T03:51:29.845Z,8.83
2023-01-17T03:54:37.042Z,5.73
2023-01-17T03:57:43.182Z,6.73
2023-01-17T04:00:49.589Z,4.80
2023-01-17T04:03:58.793Z,7.70
2023-01-17T04:07:06.761Z,9.13
2023-01-17T04:10:13.363Z,15.47
2023-01-17T04:13:19.632Z,7.60
2023-01-17T04:16:30.293Z,11.10
2023-01-17T04:19:38.238Z,12.07
2023-01-17T04:22:51.713Z,10.57
2023-01-17T04:25:57.933Z,8.00
2023-01-17T04:29:04.727Z,6.60
2023-01-17T04:32:11.216Z,7.97
2023-01-17T04:35:17.368Z,13.27
2023-01-17T04:38:25.755Z,6.43
2023-01-17T04:41:32.592Z,2.97
2023-01-17T04:44:38.961Z,3.50
2023-01-17T04:47:45.500Z,2.80
2023-01-17T04:50:52.186Z,4.03
2023-01-17T04:54:00.115Z,3.47
2023-01-17T04:57:06.210Z,3.57
2023-01-17T05:00:13.637Z,11.30
2023-01-17T05:03:20.416Z,9.03
2023-01-17T05:06:26.625Z,7.10
2023-01-17T05:09:34.540Z,11.53
2023-01-17T05:12:41.077Z,12.70
2023-01-17T05:15:52.947Z,10.93
2023-01-17T05:18:59.657Z,7.90
2023-01-17T05:22:15.046Z,9.60
2023-01-17T05:25:23.235Z,6.93
2023-01-17T05:28:29.391Z,7.43
2023-01-17T05:31:36.300Z,7.33
2023-01-17T05:34:42.580Z,13.07
2023-01-17T05:37:50.155Z,16.67
2023-01-17T05:41:00.558Z,15.47
2023-01-17T05:44:07.011Z,11.47
2023-01-17T05:47:13.168Z,12.30
2023-01-17T05:50:22.852Z,24.67
2023-01-17T05:53:31.620Z,12.43
2023-01-17T05:56:39.139Z,7.70
2023-01-17T05:59:45.478Z,4.17
2023-01-17T06:02:53.996Z,9.77
2023-01-17T06:06:00.313Z,19.27
2023-01-17T06:09:06.419Z,12.00
2023-01-17T06:12:14.024Z,14.73
2023-01-17T06:15:20.378Z,10.97
2023-01-17T06:18:26.871Z,40.23
2023-01-17T06:21:33.251Z,43.63
2023-01-17T06:24:39.455Z,12.20
2023-01-17T06:27:47.573Z,4.23
2023-01-17T06:30:53.901Z,4.00
2023-01-17T06:34:03.469Z,6.83
2023-01-17T06:37:09.991Z,15.13
2023-01-17T06:40:16.973Z,12.10
2023-01-17T06:43:24.792Z,12.37
2023-01-17T06:46:31.405Z,8.23
2023-01-17T06:49:37.723Z,14.13
2023-01-17T06:52:44.533Z,10.77
2023-01-17T06:55:50.727Z,10.67
2023-01-17T06:58:58.451Z,9.10
2023-01-17T07:02:04.775Z,15.83
2023-01-17T07:05:11.478Z,13.20
2023-01-17T07:08:18.630Z,13.40
2023-01-17T07:11:25.005Z,24.30
2023-01-17T07:14:33.262Z,25.80
2023-01-17T07:17:39.807Z,25.67
2023-01-17T07:20:45.992Z,14.10
2023-01-17T07:23:52.383Z,25.67
2023-01-17T07:26:58.586Z,12.27
2023-01-17T07:30:07.182Z,10.07
2023-01-17T07:33:13.254Z,11.30
2023-01-17T07:36:19.761Z,11.80
2023-01-17T07:39:26.251Z,9.07
2023-01-17T07:42:32.281Z,8.00
2023-01-17T07:45:42.401Z,18.87
2023-01-17T07:48:48.655Z,15.93
2023-01-17T07:51:55.648Z,8.40
2023-01-17T07:55:01.992Z,5.17
2023-01-17T07:58:08.233Z,3.43
2023-01-17T08:01:17.568Z,9.17
2023-01-17T08:04:26.878Z,7.47
2023-01-17T08:07:33.207Z,15.63
2023-01-17T08:10:39.611Z,5.17
2023-01-17T08:13:46.241Z,13.17
2023-01-17T08:17:11.239Z,8.20
2023-01-17T08:20:18.155Z,11.30
2023-01-17T08:23:25.528Z,27.53
2023-01-17T08:26:32.141Z,13.53
2023-01-17T08:29:41.500Z,18.50
2023-01-17T08:32:49.766Z,39.33
2023-01-17T08:35:56.739Z,20.87
2023-01-17T08:39:03.244Z,10.23
2023-01-17T08:42:09.635Z,16.73
2023-01-17T08:45:16.170Z,47.00
2023-01-17T08:48:24.222Z,25.07
2023-01-17T08:51:32.575Z,40.40
2023-01-17T08:54:39.103Z,33.70
2023-01-17T08:57:45.601Z,24.63
2023-01-17T09:00:51.923Z,20.23
2023-01-17T09:03:59.745Z,44.60
2023-01-17T09:07:08.647Z,33.70
2023-01-17T09:10:15.082Z,19.20
2023-01-17T09:13:21.414Z,20.90
2023-01-17T09:16:27.965Z,32.40
2023-01-17T09:19:35.636Z,40.93
2023-01-17T09:22:41.969Z,36.53
2023-01-17T09:25:53.814Z,27.80
2023-01-17T14:21:35.797Z,8.20
2023-01-17T14:24:59.134Z,6.40
2023-01-17T14:28:21.374Z,4.40
2023-01-17T14:31:29.192Z,5.80
2023-01-17T14:34:36.087Z,2.83
2023-01-17T14:37:47.794Z,4.03
2023-01-17T14:40:57.034Z,3.93
2023-01-17T14:44:03.306Z,2.23
2023-01-17T14:47:14.299Z,3.63
2023-01-17T14:50:23.657Z,4.27
2023-01-17T14:53:32.716Z,6.57
2023-01-17T14:56:39.022Z,2.90
2023-01-17T14:59:46.513Z,3.40
2023-01-17T15:03:02.347Z,6.53
2023-01-17T15:06:14.848Z,3.77
2023-01-17T15:09:25.999Z,4.00
2023-01-17T15:12:38.915Z,10.03
2023-01-17T15:15:45.293Z,7.70
2023-01-17T15:18:52.096Z,7.30
2023-01-17T15:21:59.014Z,2.50
2023-01-17T15:25:16.361Z,6.83
2023-01-17T15:28:22.723Z,2.40
2023-01-17T15:31:41.159Z,8.50
2023-01-17T15:34:50.216Z,4.10
2023-01-17T15:37:58.415Z,4.10
2023-01-17T15:41:17.210Z,5.27
2023-01-17T15:44:39.087Z,7.90
2023-01-17T15:47:54.077Z,4.47
2023-01-17T15:51:02.943Z,6.10
2023-01-17T15:54:44.537Z,4.23
2023-01-17T15:57:52.349Z,4.57
2023-01-17T16:00:59.110Z,4.23
2023-01-17T16:04:05.656Z,8.57
2023-01-17T16:07:19.823Z,2.47
2023-01-17T16:10:28.940Z,2.37
2023-01-17T16:13:42.344Z,3.53
2023-01-17T16:16:53.391Z,4.70
2023-01-17T16:20:00.374Z,3.57
2023-01-17T16:23:06.660Z,19.33
2023-01-17T16:26:13.021Z,3.13
2023-01-17T16:29:20.642Z,3.33
2023-01-17T16:32:28.734Z,4.30
2023-01-17T16:35:35.888Z,1.93
2023-01-17T16:38:45.151Z,10.47
2023-01-17T16:41:51.562Z,3.40
2023-01-17T16:44:59.129Z,3.60
2023-01-17T16:48:05.799Z,3.03
2023-01-17T16:51:13.500Z,7.37
2023-01-17T16:54:20.070Z,2.83
2023-01-17T16:57:26.614Z,4.07
2023-01-17T17:00:34.324Z,4.47
2023-01-17T17:03:41.274Z,3.67
2023-01-17T17:06:47.837Z,2.30
2023-01-17T17:09:54.335Z,2.63
2023-01-17T17:13:02.838Z,4.17
2023-01-17T17:16:19.743Z,2.70
2023-01-17T17:19:30.094Z,2.23
2023-01-17T17:22:36.586Z,3.47
2023-01-17T17:25:43.257Z,7.40
2023-01-17T17:28:53.161Z,4.23
2023-01-17T17:32:01.374Z,4.17
2023-01-17T17:35:08.390Z,7.17
2023-01-17T17:38:14.709Z,7.90
2023-01-17T17:41:23.088Z,12.97
2023-01-17T17:44:29.626Z,20.60
2023-01-17T17:47:37.573Z,19.40
2023-01-17T17:50:44.141Z,10.40
2023-01-17T17:53:52.752Z,5.60
2023-01-17T17:56:59.219Z,6.57
2023-01-17T18:00:07.305Z,7.83
2023-01-17T18:03:15.356Z,9.47
2023-01-17T18:06:22.345Z,5.40
2023-01-17T18:09:29.089Z,10.13
2023-01-17T18:12:35.218Z,10.57
2023-01-17T18:15:41.538Z,8.20
2023-01-17T18:18:51.288Z,9.60
2023-01-17T18:21:58.268Z,5.63
2023-01-17T18:25:05.007Z,5.50
2023-01-17T18:28:11.564Z,6.97
2023-01-17T18:31:18.295Z,5.07
2023-01-17T18:34:29.485Z,4.47
2023-01-17T18:37:35.836Z,13.90
2023-01-17T18:40:42.278Z,8.03
2023-01-17T18:43:49.223Z,16.67
2023-01-17T18:46:58.259Z,6.17
2023-01-17T18:50:06.433Z,10.83
2023-01-17T18:53:12.964Z,12.30
2023-01-17T18:56:21.292Z,8.07
2023-01-17T18:59:27.988Z,5.20
2023-01-17T19:02:34.052Z,5.50
2023-01-17T19:05:41.852Z,4.10
2023-01-17T19:08:49.342Z,4.20
2023-01-17T19:11:57.081Z,1.70
2023-01-17T19:15:03.713Z,3.00
2023-01-17T19:18:10.149Z,5.07
2023-01-17T19:21:20.568Z,5.47
2023-01-17T19:24:27.435Z,3.83
2023-01-17T19:27:33.506Z,4.83
2023-01-17T19:30:40.793Z,5.07
2023-01-17T19:33:48.166Z,4.77
2023-01-17T19:36:56.559Z,2.10
2023-01-17T19:40:04.305Z,4.67
2023-01-17T19:43:11.613Z,2.27
2023-01-17T19:46:19.669Z,2.57
2023-01-17T19:49:25.952Z,2.27
2023-01-17T19:52:33.721Z,7.40
2023-01-17T19:55:40.696Z,2.23
2023-01-17T19:58:48.360Z,1.73
2023-01-17T20:01:54.952Z,3.53
2023-01-17T20:05:01.670Z,5.40
2023-01-17T20:08:10.012Z,3.63
2023-01-17T20:11:19.294Z,7.17
2023-01-17T20:14:25.554Z,4.10
2023-01-17T20:17:33.876Z,9.73
2023-01-17T20:20:56.411Z,1.53
2023-01-17T20:24:05.256Z,2.33
2023-01-17T20:27:11.808Z,2.53
2023-01-17T20:30:20.758Z,3.20
2023-01-17T20:33:28.720Z,2.20
2023-01-17T20:36:37.066Z,3.00
2023-01-17T20:39:45.624Z,2.97
2023-01-17T20:42:52.207Z,1.70
2023-01-17T20:45:58.358Z,1.30
2023-01-17T20:49:07.810Z,3.27
2023-01-17T20:52:15.444Z,2.00
2023-01-17T20:55:24.305Z,2.13
2023-01-17T20:58:32.136Z,18.97
2023-01-17T21:01:39.382Z,5.20
2023-01-17T21:04:45.649Z,3.43
2023-01-17T21:07:51.943Z,2.80
2023-01-17T21:10:59.766Z,1.80
2023-01-17T21:14:06.882Z,4.53
2023-01-17T21:17:16.235Z,3.50
2023-01-17T21:20:22.356Z,3.30
2023-01-17T21:23:29.471Z,9.03
2023-01-17T21:26:39.010Z,2.40
2023-01-17T21:29:45.661Z,2.20
2023-01-17T21:32:52.227Z,2.63
2023-01-17T21:36:08.611Z,3.17
2023-01-17T21:39:16.852Z,1.70
2023-01-17T21:42:24.700Z,1.40
2023-01-17T21:45:32.095Z,2.63
2023-01-17T21:48:39.703Z,1.70
2023-01-17T21:52:03.787Z,2.47
2023-01-17T21:55:27.848Z,3.60
2023-01-17T21:58:44.682Z,1.30
2023-01-17T22:01:50.819Z,4.93
2023-01-17T22:04:57.173Z,6.00
2023-01-17T22:08:15.661Z,5.43
2023-01-17T22:11:23.521Z,6.03
2023-01-17T22:14:30.881Z,7.53
2023-01-17T22:17:38.428Z,6.33
2023-01-17T22:20:44.978Z,3.03
2023-01-17T22:23:53.840Z,9.27
2023-01-17T22:27:00.530Z,2.70
2023-01-17T22:30:13.060Z,4.07
2023-01-17T22:33:19.494Z,3.57
2023-01-17T22:36:26.450Z,11.40
2023-01-17T22:39:33.250Z,2.30
2023-01-17T22:42:39.867Z,1.43
2023-01-17T22:45:47.801Z,1.60
2023-01-17T22:48:55.767Z,6.27
2023-01-17T22:52:02.118Z,2.00
2023-01-17T22:55:09.047Z,1.30
2023-01-17T22:58:15.589Z,1.13
2023-01-17T23:01:24.868Z,1.53
2023-01-17T23:04:31.151Z,2.33
2023-01-17T23:07:43.627Z,2.10
2023-01-17T23:11:07.357Z,5.27
2023-01-17T23:14:16.286Z,3.53
2023-01-17T23:17:43.023Z,3.53
2023-01-17T23:20:49.526Z,1.90
2023-01-17T23:23:56.097Z,1.93
2023-01-17T23:27:20.025Z,1.50
2023-01-17T23:30:30.283Z,1.57
2023-01-17T23:33:37.797Z,4.17
2023-01-17T23:36:44.231Z,1.80
2023-01-17T23:39:50.751Z,2.47
2023-01-17T23:43:14.532Z,2.10
2023-01-17T23:46:21.240Z,5.20
2023-01-17T23:49:31.524Z,2.80
2023-01-17T23:52:38.131Z,4.97
2023-01-17T23:55:46.958Z,3.23
2023-01-17T23:58:53.504Z,1.87
